Time;durP1;ratioP1;P1;durP2;ratioP2;P2;SDS_P1;SDS_P2;PMS_P1;PMS_P2;Temp;Humidity;BMP_temperature;BMP_pressure;BME280_temperature;BME280_humidity;BME280_pressure;Samples;Min_cycle;Max_cycle;Signal;HPM_P1;HPM_P2
2024/02/06 00:01:11;;;;;;;22.05;10.52;;;7.40;67.80;;;;;;6290257;28;20032;-74
2024/02/06 00:04:17;;;;;;;30.08;10.48;;;7.40;67.80;;;;;;6289605;28;20135;-74
2024/02/06 00:07:18;;;;;;;25.10;10.45;;;7.30;67.70;;;;;;6297540;28;20043;-74
2024/02/06 00:10:19;;;;;;;24.88;9.55;;;7.30;67.80;;;;;;6298868;28;20027;-75
2024/02/06 00:13:20;;;;;;;27.65;10.55;;;7.20;67.90;;;;;;6284865;28;20056;-74
2024/02/06 00:16:22;;;;;;;30.33;11.05;;;7.20;68.10;;;;;;6290417;28;20795;-74
2024/02/06 00:19:23;;;;;;;24.40;10.63;;;7.20;68.20;;;;;;6308233;28;20021;-75
2024/02/06 00:22:24;;;;;;;24.15;9.68;;;7.20;68.40;;;;;;6284589;28;20040;-73
2024/02/06 00:25:26;;;;;;;26.15;11.10;;;7.20;68.50;;;;;;6285484;28;20028;-74
2024/02/06 00:28:27;;;;;;;28.25;10.15;;;7.20;68.40;;;;;;6289476;28;20463;-74
2024/02/06 00:31:31;;;;;;;26.65;10.65;;;7.20;68.40;;;;;;6292897;28;20474;-74
2024/02/06 00:34:33;;;;;;;32.05;10.43;;;7.20;68.30;;;;;;6280570;28;20016;-75
2024/02/06 00:37:34;;;;;;;19.20;8.50;;;7.20;68.20;;;;;;6297108;28;20020;-73
2024/02/06 00:40:35;;;;;;;19.08;7.95;;;7.20;68.20;;;;;;6298278;28;20024;-73
2024/02/06 00:43:37;;;;;;;21.35;8.50;;;7.30;68.00;;;;;;6309577;28;20024;-74
2024/02/06 00:46:38;;;;;;;29.17;10.75;;;7.20;68.10;;;;;;6292074;28;20032;-73
2024/02/06 00:49:39;;;;;;;24.70;10.48;;;7.20;68.00;;;;;;6298981;28;20464;-72
2024/02/06 00:52:40;;;;;;;22.35;9.70;;;7.20;68.10;;;;;;6287112;28;20477;-74
2024/02/06 00:55:42;;;;;;;24.60;9.10;;;7.20;67.90;;;;;;6292165;28;20024;-73
2024/02/06 00:58:47;;;;;;;19.65;8.27;;;7.20;67.80;;;;;;6289224;28;20034;-73
2024/02/06 01:01:48;;;;;;;22.80;8.65;;;7.20;67.80;;;;;;6284431;28;20407;-73
2024/02/06 01:04:50;;;;;;;21.38;9.38;;;7.10;67.60;;;;;;6287400;28;20103;-74
2024/02/06 01:07:51;;;;;;;29.73;8.60;;;7.00;67.80;;;;;;6285395;28;20028;-74
2024/02/06 01:10:54;;;;;;;20.75;8.55;;;7.00;67.90;;;;;;6293688;28;20016;-74
2024/02/06 01:13:55;;;;;;;22.55;9.93;;;7.00;68.20;;;;;;6292698;28;20016;-74
2024/02/06 01:16:56;;;;;;;22.92;10.82;;;7.00;68.10;;;;;;6278059;28;20515;-73
2024/02/06 01:19:58;;;;;;;22.23;9.55;;;7.00;68.00;;;;;;6299266;28;20024;-72
2024/02/06 01:22:59;;;;;;;28.52;10.68;;;7.00;68.10;;;;;;6288492;28;20059;-73
2024/02/06 01:26:00;;;;;;;25.85;9.75;;;7.00;68.00;;;;;;6292366;28;20080;-74
2024/02/06 01:29:01;;;;;;;31.45;11.18;;;7.00;68.10;;;;;;6295213;28;20028;-72
2024/02/06 01:32:04;;;;;;;28.65;8.60;;;7.00;68.00;;;;;;6293509;28;20497;-72
2024/02/06 01:35:05;;;;;;;22.52;9.45;;;7.00;67.70;;;;;;6285046;28;20471;-75
2024/02/06 01:38:06;;;;;;;24.33;9.13;;;6.90;67.40;;;;;;6272852;28;20032;-75
2024/02/06 01:41:08;;;;;;;18.75;7.72;;;6.80;67.40;;;;;;6304634;28;20368;-73
2024/02/06 01:44:09;;;;;;;19.02;8.27;;;6.70;67.50;;;;;;6291495;28;20039;-74
2024/02/06 01:47:15;;;;;;;18.60;8.85;;;6.70;67.70;;;;;;6290786;28;20036;-73
2024/02/06 01:50:16;;;;;;;16.80;7.85;;;6.70;67.80;;;;;;6295848;28;20032;-74
2024/02/06 01:53:19;;;;;;;18.20;8.57;;;6.70;67.80;;;;;;6289040;28;20460;-74
2024/02/06 01:56:20;;;;;;;16.65;6.80;;;6.60;67.60;;;;;;6292243;28;20077;-74
2024/02/06 01:59:22;;;;;;;18.42;8.13;;;6.60;67.60;;;;;;6289186;28;20032;-73
2024/02/06 02:02:23;;;;;;;22.52;7.90;;;6.60;67.60;;;;;;6303700;28;20440;-74
2024/02/06 02:05:25;;;;;;;21.02;7.80;;;6.50;67.50;;;;;;6304622;28;20031;-72
2024/02/06 02:08:35;;;;;;;18.52;7.38;;;6.50;67.20;;;;;;6289942;28;20059;-73
2024/02/06 02:11:36;;;;;;;13.20;6.97;;;6.40;67.10;;;;;;6268532;28;20036;-75
2024/02/06 02:14:38;;;;;;;16.63;8.00;;;6.40;67.30;;;;;;6288488;28;20175;-72
2024/02/06 02:17:39;;;;;;;16.42;6.70;;;6.30;67.30;;;;;;6287254;28;20021;-73
2024/02/06 02:20:41;;;;;;;11.27;5.47;;;6.30;67.40;;;;;;6300897;28;20479;-73
2024/02/06 02:23:44;;;;;;;16.92;7.45;;;6.30;67.40;;;;;;6286062;28;20093;-73
2024/02/06 02:26:46;;;;;;;20.08;6.78;;;6.30;67.40;;;;;;6286875;28;20125;-73
2024/02/06 02:29:50;;;;;;;11.40;6.20;;;6.30;67.30;;;;;;6305425;28;20024;-74
2024/02/06 02:32:53;;;;;;;11.38;6.20;;;6.20;67.00;;;;;;6291041;28;20035;-74
2024/02/06 02:35:54;;;;;;;17.02;7.40;;;6.10;67.00;;;;;;6290175;28;20024;-74
2024/02/06 02:38:55;;;;;;;15.68;7.20;;;6.10;67.30;;;;;;6305065;28;20111;-73
2024/02/06 02:41:56;;;;;;;16.85;5.65;;;6.10;67.20;;;;;;6300788;28;20016;-74
2024/02/06 02:44:57;;;;;;;14.02;6.90;;;6.10;67.20;;;;;;6286346;28;20055;-75
2024/02/06 02:47:58;;;;;;;13.00;6.72;;;6.10;67.10;;;;;;6303068;28;20036;-73
2024/02/06 02:50:59;;;;;;;14.82;6.82;;;6.10;67.00;;;;;;6298248;28;20449;-74
2024/02/06 02:54:00;;;;;;;15.00;5.57;;;6.10;67.00;;;;;;6283538;28;20027;-73
2024/02/06 02:57:01;;;;;;;13.20;5.93;;;6.00;66.80;;;;;;6283930;28;20445;-73
2024/02/06 03:00:03;;;;;;;14.18;6.82;;;6.00;66.80;;;;;;6291682;28;20130;-72
2024/02/06 03:03:06;;;;;;;10.95;5.60;;;5.90;66.70;;;;;;6295469;28;20272;-74
2024/02/06 03:06:07;;;;;;;11.45;6.45;;;5.90;66.90;;;;;;6271307;28;20539;-74
2024/02/06 03:09:08;;;;;;;13.35;6.30;;;5.90;66.90;;;;;;6261295;28;20095;-72
2024/02/06 03:12:10;;;;;;;11.88;5.20;;;5.90;67.00;;;;;;6298620;28;20361;-74
2024/02/06 03:15:11;;;;;;;12.73;4.90;;;5.90;67.00;;;;;;6310969;28;20143;-72
2024/02/06 03:18:15;;;;;;;8.85;4.90;;;5.80;66.90;;;;;;6300427;28;20025;-73
2024/02/06 03:21:16;;;;;;;11.05;6.15;;;5.80;66.70;;;;;;6314205;28;20039;-74
2024/02/06 03:24:17;;;;;;;16.80;5.88;;;5.70;66.60;;;;;;6292907;28;20033;-75
2024/02/06 03:27:18;;;;;;;11.32;5.40;;;5.60;66.70;;;;;;6291622;28;20042;-74
2024/02/06 03:30:20;;;;;;;10.55;5.63;;;5.60;66.80;;;;;;6288685;28;20062;-73
2024/02/06 03:33:20;;;;;;;15.02;5.72;;;5.50;67.10;;;;;;6299989;28;20070;-77
2024/02/06 03:36:21;;;;;;;10.23;4.05;;;5.40;67.20;;;;;;6292841;28;20024;-74
2024/02/06 03:39:23;;;;;;;6.47;3.25;;;5.40;67.50;;;;;;6286803;28;20024;-74
2024/02/06 03:42:24;;;;;;;9.35;5.35;;;5.40;67.40;;;;;;6285700;28;20052;-74
2024/02/06 03:45:25;;;;;;;9.30;5.15;;;5.40;67.30;;;;;;6285949;28;20024;-73
2024/02/06 03:48:27;;;;;;;8.57;5.15;;;5.30;67.30;;;;;;6283743;28;20036;-73
2024/02/06 03:51:28;;;;;;;11.43;5.78;;;5.30;67.20;;;;;;6267471;28;20412;-73
2024/02/06 03:54:29;;;;;;;23.10;5.28;;;5.30;67.40;;;;;;6306996;28;20028;-74
2024/02/06 03:57:30;;;;;;;13.98;5.05;;;5.30;67.50;;;;;;6303713;28;20021;-73
2024/02/06 04:00:32;;;;;;;8.38;5.85;;;5.30;67.50;;;;;;6286629;28;20028;-72
2024/02/06 04:03:33;;;;;;;10.20;5.05;;;5.30;67.40;;;;;;6296068;28;20025;-74
2024/02/06 04:06:34;;;;;;;13.82;6.30;;;5.30;67.30;;;;;;6304243;28;20447;-73
2024/02/06 04:09:35;;;;;;;7.00;4.03;;;5.20;67.20;;;;;;6292744;28;20448;-71
2024/02/06 04:12:36;;;;;;;8.05;5.00;;;5.20;67.30;;;;;;6301920;28;20024;-74
2024/02/06 04:15:37;;;;;;;8.50;4.32;;;5.00;67.40;;;;;;6268841;28;20021;-74
2024/02/06 04:18:39;;;;;;;10.05;5.22;;;5.00;67.70;;;;;;6287518;28;20071;-74
2024/02/06 04:21:40;;;;;;;8.88;4.88;;;5.00;68.00;;;;;;6297319;28;20130;-73
2024/02/06 04:24:41;;;;;;;11.23;5.53;;;5.00;68.20;;;;;;6305643;28;20024;-74
2024/02/06 04:27:43;;;;;;;12.82;6.43;;;5.00;68.20;;;;;;6307207;28;20035;-73
2024/02/06 04:30:44;;;;;;;11.00;5.78;;;5.00;68.20;;;;;;6307443;28;20071;-74
2024/02/06 04:33:46;;;;;;;9.98;5.47;;;5.00;68.20;;;;;;6293493;28;20079;-75
2024/02/06 04:36:47;;;;;;;13.90;6.50;;;5.00;68.20;;;;;;6308742;28;20016;-74
2024/02/06 04:39:48;;;;;;;16.90;6.75;;;5.00;68.30;;;;;;6302161;28;20348;-72
2024/02/06 04:42:49;;;;;;;12.65;5.63;;;5.00;68.20;;;;;;6294227;28;20043;-73
2024/02/06 04:45:50;;;;;;;11.63;5.50;;;5.00;68.20;;;;;;6283514;28;20017;-73
2024/02/06 04:48:51;;;;;;;12.73;6.22;;;5.00;68.20;;;;;;6281607;28;20522;-74
2024/02/06 04:51:52;;;;;;;11.05;5.75;;;5.00;68.30;;;;;;6283071;28;20449;-74
2024/02/06 04:54:53;;;;;;;14.23;5.03;;;5.00;68.40;;;;;;6281377;28;20376;-73
2024/02/06 04:57:54;;;;;;;16.27;6.45;;;5.10;68.50;;;;;;6278789;28;20020;-71
2024/02/06 05:00:55;;;;;;;14.93;5.22;;;5.10;68.40;;;;;;6301606;28;20024;-74
2024/02/06 05:03:56;;;;;;;21.05;7.85;;;5.10;68.20;;;;;;6294353;28;20117;-73
2024/02/06 05:06:57;;;;;;;11.07;5.95;;;5.10;68.00;;;;;;6306905;28;20020;-73
2024/02/06 05:09:58;;;;;;;8.65;6.15;;;5.10;68.00;;;;;;6296109;28;20039;-74
2024/02/06 05:13:00;;;;;;;13.77;6.53;;;5.10;68.30;;;;;;6299033;28;20090;-74
2024/02/06 05:16:01;;;;;;;12.90;7.15;;;5.10;68.40;;;;;;6289020;28;20413;-74
2024/02/06 05:19:01;;;;;;;13.00;6.40;;;5.10;68.20;;;;;;6287241;28;20028;-74
2024/02/06 05:22:04;;;;;;;14.45;6.60;;;5.10;68.20;;;;;;6287762;28;20087;-71
2024/02/06 05:25:06;;;;;;;15.20;7.05;;;5.10;68.20;;;;;;6282126;28;20021;-74
2024/02/06 05:28:07;;;;;;;15.13;6.65;;;5.10;68.30;;;;;;6297403;28;20030;-73
2024/02/06 05:31:08;;;;;;;13.52;6.30;;;5.20;68.40;;;;;;6312142;28;20027;-71
2024/02/06 05:34:09;;;;;;;8.88;5.50;;;5.20;68.20;;;;;;6295458;28;20020;-74
2024/02/06 05:37:10;;;;;;;10.80;5.82;;;5.20;68.10;;;;;;6292606;28;20020;-73
2024/02/06 05:40:12;;;;;;;9.13;5.90;;;5.20;68.10;;;;;;6301490;28;20024;-75
2024/02/06 05:43:13;;;;;;;14.65;6.68;;;5.20;68.10;;;;;;6295383;28;20104;-76
2024/02/06 05:46:14;;;;;;;12.35;6.07;;;5.20;68.00;;;;;;6309961;28;20028;-74
2024/02/06 05:49:15;;;;;;;13.32;6.90;;;5.20;67.90;;;;;;6293931;28;20469;-73
2024/02/06 05:52:16;;;;;;;12.18;5.32;;;5.20;67.90;;;;;;6300779;28;20024;-73
2024/02/06 05:55:17;;;;;;;11.35;6.07;;;5.10;67.80;;;;;;6286326;28;20154;-74
2024/02/06 05:58:18;;;;;;;10.68;6.10;;;5.10;68.00;;;;;;6286061;28;20031;-73
2024/02/06 06:01:19;;;;;;;9.73;4.60;;;5.00;68.20;;;;;;6285996;28;20070;-75
2024/02/06 06:04:21;;;;;;;8.50;4.85;;;4.90;68.30;;;;;;6290113;28;20024;-72
2024/02/06 06:07:22;;;;;;;8.48;5.40;;;4.90;68.50;;;;;;6311025;28;20717;-73
2024/02/06 06:10:23;;;;;;;8.82;4.55;;;4.90;68.70;;;;;;6308752;28;20015;-73
2024/02/06 06:13:24;;;;;;;9.88;5.15;;;4.80;68.70;;;;;;6297108;28;20097;-73
2024/02/06 06:16:26;;;;;;;7.53;4.55;;;4.90;68.90;;;;;;6305120;28;20047;-73
2024/02/06 06:19:27;;;;;;;12.40;5.45;;;4.90;68.90;;;;;;6302310;28;20384;-73
2024/02/06 06:22:28;;;;;;;7.95;4.75;;;4.90;69.10;;;;;;6277268;28;20024;-73
2024/02/06 06:25:30;;;;;;;10.48;4.57;;;4.90;69.00;;;;;;6293908;28;20021;-74
2024/02/06 06:28:31;;;;;;;12.68;6.55;;;5.00;69.10;;;;;;6298932;28;20099;-74
2024/02/06 06:31:31;;;;;;;13.80;5.80;;;5.00;68.90;;;;;;6285113;28;20028;-72
2024/02/06 06:34:32;;;;;;;10.00;5.97;;;5.10;68.90;;;;;;6298540;28;20214;-71
2024/02/06 06:37:34;;;;;;;16.27;6.65;;;5.20;68.90;;;;;;6284427;28;20024;-73
2024/02/06 06:40:35;;;;;;;8.60;4.55;;;5.20;69.60;;;;;;6286152;28;20043;-72
2024/02/06 06:43:36;;;;;;;11.20;6.20;;;5.20;68.60;;;;;;6297815;28;20671;-73
2024/02/06 06:46:37;;;;;;;12.07;6.95;;;5.30;68.40;;;;;;6286814;28;20476;-72
2024/02/06 06:49:38;;;;;;;11.45;5.75;;;5.30;68.40;;;;;;6288994;28;20550;-74
2024/02/06 06:52:40;;;;;;;11.32;6.35;;;5.30;68.30;;;;;;6285390;28;20024;-76
2024/02/06 06:55:41;;;;;;;15.38;7.10;;;5.30;68.20;;;;;;6285554;28;20066;-74
2024/02/06 06:58:43;;;;;;;13.70;7.40;;;5.30;68.10;;;;;;6286278;28;20055;-74
2024/02/06 07:01:43;;;;;;;15.32;7.85;;;5.30;68.10;;;;;;6310797;28;20024;-75
2024/02/06 07:04:44;;;;;;;16.85;8.45;;;5.30;68.00;;;;;;6292112;28;20415;-74
2024/02/06 07:07:45;;;;;;;15.10;8.45;;;5.40;68.00;;;;;;6258900;28;20138;-75
2024/02/06 07:10:47;;;;;;;16.75;6.68;;;5.40;67.80;;;;;;6275223;28;20039;-75
2024/02/06 07:13:48;;;;;;;19.15;7.43;;;5.30;67.50;;;;;;6296361;28;20070;-75
2024/02/06 07:16:49;;;;;;;26.38;6.70;;;5.30;67.40;;;;;;6275095;28;20117;-76
2024/02/06 07:19:50;;;;;;;15.88;6.75;;;5.30;67.70;;;;;;6276532;28;20059;-75
2024/02/06 07:22:52;;;;;;;12.45;6.72;;;5.30;67.50;;;;;;6308703;28;20028;-76
2024/02/06 07:25:53;;;;;;;13.65;7.43;;;5.20;67.40;;;;;;6294886;28;20025;-75
2024/02/06 07:28:56;;;;;;;28.35;9.13;;;5.20;67.50;;;;;;6302656;28;20152;-75
2024/02/06 07:31:57;;;;;;;12.98;7.97;;;5.20;67.80;;;;;;6293996;28;20040;-74
2024/02/06 07:35:00;;;;;;;25.30;7.55;;;5.20;67.80;;;;;;6286706;28;20187;-73
2024/02/06 07:38:01;;;;;;;20.13;9.75;;;5.20;68.00;;;;;;6285750;28;20067;-73
2024/02/06 07:41:03;;;;;;;16.20;7.82;;;5.20;68.10;;;;;;6283543;28;20445;-76
2024/02/06 07:44:05;;;;;;;22.67;10.07;;;5.30;68.00;;;;;;6294066;28;20092;-75
2024/02/06 07:47:06;;;;;;;20.30;9.18;;;5.30;67.90;;;;;;6286439;28;20111;-74
2024/02/06 07:50:10;;;;;;;13.27;7.28;;;5.30;67.80;;;;;;6286172;28;20040;-73
2024/02/06 07:53:14;;;;;;;11.90;6.75;;;5.30;67.70;;;;;;6305425;28;20024;-76
2024/02/06 07:56:19;;;;;;;20.00;8.15;;;5.30;67.80;;;;;;6296604;28;20130;-73
2024/02/06 07:59:21;;;;;;;15.95;7.97;;;5.40;67.80;;;;;;6281588;28;20031;-74
2024/02/06 08:02:21;;;;;;;11.02;6.50;;;5.40;67.80;;;;;;6282205;28;20033;-75
2024/02/06 08:05:23;;;;;;;13.05;7.60;;;5.40;67.90;;;;;;6289579;28;20070;-75
2024/02/06 08:08:24;;;;;;;15.65;7.95;;;5.40;67.80;;;;;;6309454;28;20024;-74
2024/02/06 08:11:25;;;;;;;18.02;8.27;;;5.50;67.90;;;;;;6300898;28;20019;-74
2024/02/06 08:14:26;;;;;;;12.75;7.25;;;5.50;68.00;;;;;;6273008;28;20167;-72
2024/02/06 08:17:27;;;;;;;15.98;7.85;;;5.60;68.10;;;;;;6305233;28;20013;-75
2024/02/06 08:20:28;;;;;;;22.40;8.00;;;5.60;68.10;;;;;;6298495;28;20020;-74
2024/02/06 08:23:29;;;;;;;14.65;7.65;;;5.70;67.90;;;;;;6305134;28;20019;-74
2024/02/06 08:26:30;;;;;;;21.98;9.10;;;5.80;67.70;;;;;;6279443;28;20417;-73
2024/02/06 08:29:30;;;;;;;17.60;7.13;;;5.80;67.30;;;;;;6304004;28;20032;-74
2024/02/06 08:32:31;;;;;;;13.88;6.57;;;5.90;67.20;;;;;;6282344;28;20429;-73
2024/02/06 08:35:32;;;;;;;27.05;7.32;;;5.90;67.40;;;;;;6295489;28;20009;-74
2024/02/06 08:38:33;;;;;;;16.90;7.20;;;5.90;67.40;;;;;;6286744;28;20536;-73
2024/02/06 08:41:34;;;;;;;14.73;7.18;;;6.00;67.30;;;;;;6282562;28;20158;-72
2024/02/06 08:44:35;;;;;;;18.25;7.55;;;6.10;67.10;;;;;;6294459;28;20436;-73
2024/02/06 08:47:36;;;;;;;13.35;7.53;;;6.30;67.00;;;;;;6292382;28;20090;-72
2024/02/06 08:50:37;;;;;;;32.20;7.78;;;6.40;67.00;;;;;;6290655;28;20126;-72
2024/02/06 08:53:38;;;;;;;18.75;8.23;;;6.50;66.90;;;;;;6309529;28;20020;-75
2024/02/06 08:56:39;;;;;;;15.02;7.32;;;6.70;66.50;;;;;;6295482;28;20048;-73
2024/02/06 08:59:40;;;;;;;26.90;7.95;;;6.90;66.20;;;;;;6309455;28;20031;-73
2024/02/06 09:02:41;;;;;;;23.00;9.93;;;7.00;65.90;;;;;;6283586;28;20025;-74
2024/02/06 09:05:42;;;;;;;15.82;8.48;;;7.20;65.50;;;;;;6297790;28;20020;-74
2024/02/06 09:08:43;;;;;;;17.20;8.20;;;7.30;65.40;;;;;;6283698;28;20078;-73
2024/02/06 09:11:44;;;;;;;21.00;9.57;;;7.40;65.20;;;;;;6285197;28;20020;-73
2024/02/06 09:14:44;;;;;;;26.60;9.05;;;7.60;65.10;;;;;;6292971;28;20035;-74
2024/02/06 09:17:47;;;;;;;24.85;10.93;;;7.70;64.90;;;;;;6289511;28;20032;-73
2024/02/06 09:20:49;;;;;;;20.73;8.38;;;7.80;64.50;;;;;;6284376;28;20009;-74
2024/02/06 09:23:49;;;;;;;35.28;10.70;;;7.90;64.30;;;;;;6280922;28;20047;-73
2024/02/06 09:26:51;;;;;;;39.70;10.88;;;8.00;64.00;;;;;;6298371;28;20507;-73
2024/02/06 09:29:52;;;;;;;27.10;10.48;;;8.10;63.70;;;;;;6284944;28;20090;-74
2024/02/06 09:32:53;;;;;;;22.10;9.73;;;8.20;63.40;;;;;;6305818;28;20464;-75
2024/02/06 09:35:54;;;;;;;24.88;9.75;;;8.20;63.20;;;;;;6288855;28;20182;-74
2024/02/06 09:38:54;;;;;;;27.30;8.98;;;8.30;63.10;;;;;;6282741;28;20426;-74
2024/02/06 09:42:01;;;;;;;22.17;10.20;;;8.40;63.10;;;;;;6291874;28;20012;-74
2024/02/06 09:45:02;;;;;;;25.52;10.85;;;8.50;62.80;;;;;;6302792;28;20016;-73
2024/02/06 09:48:03;;;;;;;26.77;10.27;;;8.60;62.70;;;;;;6294475;28;20055;-73
2024/02/06 09:51:05;;;;;;;28.02;9.90;;;8.70;62.70;;;;;;6281867;28;20024;-73
2024/02/06 09:54:09;;;;;;;24.45;10.02;;;8.70;62.10;;;;;;6307559;28;20029;-73
2024/02/06 09:57:11;;;;;;;20.60;10.43;;;8.70;62.00;;;;;;6285708;28;20008;-72
2024/02/06 10:00:14;;;;;;;21.80;9.20;;;8.80;61.70;;;;;;6280595;28;20068;-73
2024/02/06 10:03:27;;;;;;;26.77;10.40;;;8.80;61.80;;;;;;6297663;28;20057;-74
2024/02/06 10:06:30;;;;;;;22.38;10.93;;;8.80;61.80;;;;;;6293946;28;20068;-72
2024/02/06 10:09:33;;;;;;;33.65;11.57;;;8.90;61.80;;;;;;6282229;28;20067;-72
2024/02/06 10:12:34;;;;;;;27.55;8.85;;;9.00;61.50;;;;;;6283818;28;20156;-73
2024/02/06 10:15:34;;;;;;;22.08;9.45;;;9.10;61.30;;;;;;6284485;28;20380;-75
2024/02/06 10:18:35;;;;;;;24.63;10.55;;;9.20;61.10;;;;;;6281827;28;20025;-73
2024/02/06 10:21:36;;;;;;;26.67;10.85;;;9.30;60.90;;;;;;6283675;28;20086;-72
2024/02/06 10:24:37;;;;;;;22.10;10.60;;;9.40;60.70;;;;;;6281611;28;20525;-73
2024/02/06 10:27:38;;;;;;;52.95;11.77;;;9.60;60.30;;;;;;6306177;28;20278;-74
2024/02/06 10:30:39;;;;;;;26.63;11.05;;;9.90;60.00;;;;;;6300490;28;20019;-74
2024/02/06 10:33:40;;;;;;;27.70;10.68;;;10.10;59.60;;;;;;6301959;28;20020;-74
2024/02/06 10:36:42;;;;;;;37.35;10.88;;;10.30;59.20;;;;;;6294719;28;20067;-73
2024/02/06 10:39:43;;;;;;;26.92;9.93;;;10.50;58.90;;;;;;6282232;28;20443;-73
2024/02/06 10:42:44;;;;;;;31.23;12.25;;;10.70;58.40;;;;;;6292273;28;20031;-73
2024/02/06 10:45:59;;;;;;;29.90;11.07;;;10.80;58.40;;;;;;6308046;28;20043;-74
2024/02/06 10:49:06;;;;;;;23.02;11.05;;;10.90;58.00;;;;;;6292374;28;20051;-73
2024/02/06 10:52:08;;;;;;;38.45;13.15;;;11.00;57.40;;;;;;6282506;28;20021;-73
2024/02/06 10:55:09;;;;;;;33.25;12.77;;;11.10;57.10;;;;;;6283630;28;20031;-73
2024/02/06 10:58:14;;;;;;;26.25;11.57;;;11.30;57.00;;;;;;6299155;28;20191;-73
2024/02/06 11:01:15;;;;;;;34.03;12.95;;;11.40;56.50;;;;;;6307835;28;20057;-73
2024/02/06 11:04:21;;;;;;;35.78;14.27;;;11.60;56.20;;;;;;6298659;28;20064;-73
2024/02/06 11:07:24;;;;;;;28.20;14.30;;;11.70;55.80;;;;;;6286702;28;20035;-71
2024/02/06 11:10:40;;;;;;;28.42;14.38;;;12.00;55.10;;;;;;6268550;28;20124;-73
2024/02/06 11:13:46;;;;;;;28.58;13.43;;;12.20;54.80;;;;;;6293244;28;20538;-74
2024/02/06 11:16:54;;;;;;;43.75;15.65;;;12.50;54.40;;;;;;6294671;28;20028;-75
2024/02/06 11:20:04;;;;;;;37.33;17.38;;;12.80;53.50;;;;;;6284809;28;20056;-75
2024/02/06 11:23:08;;;;;;;40.75;18.52;;;13.10;53.00;;;;;;6293735;28;20631;-74
2024/02/06 11:26:11;;;;;;;42.72;16.00;;;13.40;51.90;;;;;;6307084;28;20012;-75
2024/02/06 11:29:12;;;;;;;48.35;15.70;;;13.70;51.50;;;;;;6300659;28;20121;-73
2024/02/06 11:32:16;;;;;;;30.25;14.45;;;14.00;50.80;;;;;;6281846;28;20044;-74
2024/02/06 11:35:26;;;;;;;34.83;16.77;;;14.40;50.10;;;;;;6281700;28;20080;-74
2024/02/06 11:38:27;;;;;;;42.45;16.08;;;14.70;48.90;;;;;;6287284;28;20571;-73
2024/02/06 11:41:28;;;;;;;42.75;17.70;;;15.10;47.80;;;;;;6305431;28;20043;-75
2024/02/06 11:44:29;;;;;;;31.40;16.63;;;15.20;47.10;;;;;;6288562;28;20451;-75
2024/02/06 11:47:30;;;;;;;48.03;20.15;;;15.40;46.80;;;;;;6282552;28;20020;-75
2024/02/06 11:50:45;;;;;;;43.55;16.58;;;15.90;46.60;;;;;;6283904;28;20349;-74
2024/02/06 11:53:45;;;;;;;30.92;15.05;;;16.20;45.60;;;;;;6282029;28;20070;-75
2024/02/06 11:56:46;;;;;;;33.00;15.43;;;16.60;45.30;;;;;;6281555;28;20153;-74
2024/02/06 11:59:48;;;;;;;33.50;14.65;;;17.00;44.40;;;;;;6280786;28;20476;-74
2024/02/06 12:02:57;;;;;;;26.10;13.60;;;17.50;43.90;;;;;;6281438;28;20116;-75
2024/02/06 12:05:58;;;;;;;32.20;14.77;;;18.00;42.50;;;;;;6278449;28;20104;-74
2024/02/06 12:09:04;;;;;;;25.15;12.63;;;18.40;41.50;;;;;;6284071;28;20039;-74
2024/02/06 12:12:05;;;;;;;23.35;12.50;;;18.60;40.90;;;;;;6281589;28;20431;-75
2024/02/06 12:15:06;;;;;;;30.75;11.60;;;18.80;40.00;;;;;;6279253;28;20084;-75
2024/02/06 12:18:14;;;;;;;36.58;12.32;;;18.60;40.40;;;;;;6279852;28;20013;-72
2024/02/06 12:21:22;;;;;;;25.83;11.07;;;18.20;40.80;;;;;;6281895;28;20020;-75
2024/02/06 12:24:23;;;;;;;29.02;12.32;;;17.60;41.70;;;;;;6295302;28;20088;-74
2024/02/06 12:27:23;;;;;;;21.42;9.95;;;17.00;43.00;;;;;;6300200;28;20017;-73
2024/02/06 12:30:28;;;;;;;27.75;9.98;;;16.50;44.00;;;;;;6303319;28;20153;-73
2024/02/06 12:33:34;;;;;;;24.83;10.77;;;16.10;44.60;;;;;;6297520;28;20568;-74
2024/02/06 12:36:37;;;;;;;37.88;11.43;;;15.80;45.30;;;;;;6284138;28;20019;-74
2024/02/06 12:39:38;;;;;;;24.58;10.52;;;15.40;45.80;;;;;;6302851;28;20076;-72
2024/02/06 12:42:43;;;;;;;22.35;10.43;;;15.10;46.20;;;;;;6305814;28;20267;-73
2024/02/06 12:45:47;;;;;;;25.10;10.05;;;14.90;46.80;;;;;;6280915;28;20024;-74
2024/02/06 12:48:54;;;;;;;23.10;10.00;;;14.60;47.30;;;;;;6294933;28;20106;-73
2024/02/06 12:51:57;;;;;;;25.98;10.90;;;14.40;47.80;;;;;;6280467;28;20036;-73
2024/02/06 12:54:58;;;;;;;30.35;10.18;;;14.40;48.30;;;;;;6280790;28;20066;-74
2024/02/06 12:58:00;;;;;;;20.13;9.90;;;14.30;48.50;;;;;;6291491;28;20031;-74
2024/02/06 13:01:01;;;;;;;26.52;10.45;;;14.30;48.70;;;;;;6305233;28;20028;-73
2024/02/06 13:04:02;;;;;;;21.75;9.80;;;14.30;49.00;;;;;;6306688;28;20482;-73
2024/02/06 13:07:03;;;;;;;24.70;10.55;;;14.30;49.20;;;;;;6308909;28;20201;-74
2024/02/06 13:10:15;;;;;;;21.00;9.55;;;14.20;49.30;;;;;;6306846;28;20039;-72
2024/02/06 13:13:17;;;;;;;22.10;9.65;;;14.20;49.50;;;;;;6268201;28;20021;-73
2024/02/06 13:16:18;;;;;;;21.58;9.15;;;14.30;49.50;;;;;;6282680;28;20330;-75
2024/02/06 13:19:22;;;;;;;21.45;9.80;;;14.20;49.50;;;;;;6274174;28;20443;-73
2024/02/06 13:22:26;;;;;;;29.95;9.95;;;14.20;49.70;;;;;;6281104;28;20028;-73
2024/02/06 13:25:27;;;;;;;24.58;10.20;;;14.20;49.80;;;;;;6281677;28;20124;-74
2024/02/06 13:28:28;;;;;;;21.10;9.30;;;14.10;49.90;;;;;;6279926;28;20040;-74
2024/02/06 13:31:29;;;;;;;24.75;10.10;;;14.10;49.90;;;;;;6309052;28;20120;-74
2024/02/06 13:34:30;;;;;;;22.73;9.32;;;14.10;50.10;;;;;;6297169;28;20016;-74
2024/02/06 13:37:35;;;;;;;20.83;9.00;;;14.10;50.20;;;;;;6290169;28;20494;-73
2024/02/06 13:40:37;;;;;;;22.73;9.35;;;14.10;50.20;;;;;;6299199;28;20107;-73
2024/02/06 13:43:38;;;;;;;24.00;9.52;;;14.10;50.30;;;;;;6287894;28;20023;-73
2024/02/06 13:46:39;;;;;;;23.77;10.00;;;14.10;50.40;;;;;;6307507;28;20055;-73
2024/02/06 13:49:40;;;;;;;26.08;9.15;;;14.10;50.40;;;;;;6283886;28;20608;-73
2024/02/06 13:52:41;;;;;;;24.23;9.05;;;14.10;50.40;;;;;;6284428;28;20032;-73
2024/02/06 13:55:43;;;;;;;19.67;8.27;;;14.10;50.50;;;;;;6284239;28;20116;-74
2024/02/06 13:58:44;;;;;;;17.85;8.68;;;14.10;50.50;;;;;;6284913;28;20048;-74
2024/02/06 14:01:45;;;;;;;21.90;7.88;;;14.10;50.60;;;;;;6284056;28;20035;-75
2024/02/06 14:04:45;;;;;;;19.15;7.10;;;14.10;50.60;;;;;;6284771;28;20020;-74
2024/02/06 14:07:46;;;;;;;12.88;6.25;;;14.10;50.70;;;;;;6305288;28;20253;-74
2024/02/06 14:11:13;;;;;;;15.50;7.15;;;14.10;50.70;;;;;;6302379;28;20110;-74
2024/02/06 14:14:14;;;;;;;15.82;6.25;;;14.20;50.70;;;;;;6289067;28;20016;-75
2024/02/06 14:17:15;;;;;;;16.73;7.45;;;14.20;50.70;;;;;;6308704;28;20099;-75
2024/02/06 14:20:16;;;;;;;11.48;4.53;;;14.20;50.70;;;;;;6295128;28;20752;-74
2024/02/06 14:23:16;;;;;;;17.88;4.05;;;14.20;50.60;;;;;;6297462;28;20468;-75
2024/02/06 14:26:17;;;;;;;8.68;3.55;;;14.20;50.70;;;;;;6304270;28;20375;-74
2024/02/06 14:29:18;;;;;;;9.38;5.20;;;14.20;50.80;;;;;;6287206;28;20090;-75
2024/02/06 14:32:19;;;;;;;8.68;4.50;;;14.20;50.80;;;;;;6286854;28;20506;-74
2024/02/06 14:35:20;;;;;;;15.48;5.60;;;14.20;50.90;;;;;;6291843;28;20020;-74
2024/02/06 14:38:21;;;;;;;10.20;4.10;;;14.20;50.80;;;;;;6309046;28;20028;-74
2024/02/06 14:41:21;;;;;;;13.90;4.18;;;14.30;50.90;;;;;;6292975;28;20139;-74
2024/02/06 14:44:23;;;;;;;9.23;3.97;;;14.20;50.80;;;;;;6281095;28;20142;-74
2024/02/06 14:47:24;;;;;;;9.80;3.45;;;14.20;50.90;;;;;;6307575;28;20039;-74
2024/02/06 14:50:25;;;;;;;8.50;4.05;;;14.20;50.90;;;;;;6298770;28;20078;-76
2024/02/06 14:53:25;;;;;;;13.57;3.92;;;14.20;50.90;;;;;;6283362;28;20125;-74
2024/02/06 14:56:26;;;;;;;7.68;3.65;;;14.20;51.00;;;;;;6296805;28;20392;-75
2024/02/06 14:59:29;;;;;;;11.25;4.18;;;14.10;50.90;;;;;;6308088;28;20135;-75
2024/02/06 15:02:29;;;;;;;8.68;3.75;;;14.10;51.10;;;;;;6294124;28;20029;-73
2024/02/06 15:05:30;;;;;;;8.85;4.22;;;14.10;51.30;;;;;;6266903;28;20088;-75
2024/02/06 15:08:31;;;;;;;8.75;4.25;;;14.00;51.30;;;;;;6284824;28;20149;-74
2024/02/06 15:11:32;;;;;;;10.98;3.45;;;13.90;51.50;;;;;;6296856;28;20032;-75
2024/02/06 15:14:33;;;;;;;9.50;4.10;;;13.80;51.50;;;;;;6307777;28;20052;-75
2024/02/06 15:17:34;;;;;;;16.73;3.17;;;13.70;51.70;;;;;;6308107;28;20008;-75
2024/02/06 15:20:35;;;;;;;7.93;3.25;;;13.70;51.80;;;;;;6277829;28;20092;-74
2024/02/06 15:23:41;;;;;;;10.95;4.28;;;13.60;51.90;;;;;;6284737;28;20024;-73
2024/02/06 15:26:43;;;;;;;10.73;3.33;;;13.60;52.10;;;;;;6302456;28;20024;-75
2024/02/06 15:29:44;;;;;;;6.93;3.15;;;13.60;52.10;;;;;;6297966;28;20439;-74
2024/02/06 15:32:45;;;;;;;13.43;3.90;;;13.50;52.20;;;;;;6301678;28;20061;-74
2024/02/06 15:35:46;;;;;;;11.45;3.17;;;13.50;52.90;;;;;;6294490;28;20038;-75
2024/02/06 15:38:47;;;;;;;10.95;3.08;;;13.50;52.40;;;;;;6295837;28;20016;-73
2024/02/06 15:41:49;;;;;;;7.00;3.10;;;13.40;52.50;;;;;;6275733;28;20017;-74